Aérodrome de Figeac - Livernon

LFCF · Lot, Occitanie, 法国

使用的METAR站距离机场47 km。
罗盘
风向 的 风向 的 风向 到 风向 290° Aérodrome de Figeac - Livernon 11/29
风: 8 kt, 3 beaufort

8 kt

改变
0 ft 1.000 2.000 3.000 4.000 5.000
Cloud Cloud Cloud Cloud Cloud Cloud Cloud Cloud
OVC 700
METAR LFSL 030930Z AUTO 29008KT 260V320 9999 OVC007 06/04 Q1002 BECMG BKN020

METAR Aérodrome de Figeac - Livernon - LFCF

Aérodrome de Figeac - Livernon是,法国中的小机场。 该机场位于纬度44,67241和经度1,78795。 该机场有一条跑道: 11/29. 本场的ICAO机场代码为LFCF。 机场在Bordeaux FIR中。

该航空气象观测是针对Brive-Souillac在2024年3月3日 10:30, 当地时间进行的。

机场观察

风向为290°,速度为8 kt。 风向在260°和320°之间变化。

可见度为10 km 或者更多。

有乌云密布在700 ft的高度。 破损或更高的上限为700 ft。

温度为6 °C,阵风为2 °C。 露点为4 °C,相对湿度为87%。 海平面上的气压为1002 hPa (QNH)。

发展趋势

  • 变得

    可变方向的风很小或没有。 碎云在2.000 ft的高度.

白天

今天,太阳从07:25升起,在18:43降落。 这适用于Aérodrome de Figeac - Livernon,世界夏令时可能有所不同。 当地时间与世界标准时间之间的时差为+1 小时。 当前,没有夏令时有效。

公司介绍

在这个机场,你可以找到飞行俱乐部。 本场上唯一已知的公司是Aéroclub de Figeac Livernon。

体会

到Vliegles.nl去找飞行课程,跳伞和其他飞行体验。 浏览页面,了解Aérodrome de Figeac - Livernon附近所有可用的活动。 你也可以使用搜索功能来寻找你所在地附近的特定飞行课程、跳伞或其他飞行体验。

跑道

Id 标题 侧风 逆风 侧风 %
11/29 110°-290° 8 kt 0 %

逆风成分最大的方向会被突出显示,并用于横风计算。 这并不一定意味着这个方向在使用。

乌云

700 ft OVC 乌云密布
2.000 ft BKN 变得 碎云

温度 & 天气

温度 6 °C
露点 4 °C
相对湿度 87%
风寒 2 °C
Kp-index 0 (0-9)

白天

日出
07:27
中午
13:05
日落
18:44 (7:57)

小工具

你想在你的网站上有一个关于Aérodrome de Figeac - Livernon的当前航空天气(METAR)的小部件吗?

显示HTML代码
?>